Ana Sayfa
METAR-TAF:

METAR-TAF

Havaalanları :

Samsun Çarşamba Havalimanı

Samsun, Türkiye

Enlem: 41-15-15N, Boylam: 036-34-03E, yükseklik: 5 m

Güncel hava durumu gözlemi

Rapor saat 18:50 UTC de 31 dakika önce yapıldı.
Rüzgar değişken yönden 1 kt
Sıcaklık 18°C
Nem 94%
Basınç 1020 hPa
Görüş mesafesi: 6000 m
3600 ft yükseklikte az bulutlu
10000 ft yükseklikte parçalı bulutlu

METAR: LTFH 161850Z VRB01KT 6000 FEW036 SCT100 18/17 Q1020 NOSIG

Saat: 22:21 (19:21 UTC)

Tahmin

Rapor saat 16:40 UTC de 2 saat ve 41 dakika önce yapıldı.
Ayın 16'si saat 18 UTC'den ayın 17'si saat 03 UTC'ye kadar geçerli Tahmin
Rüzgar değişken yönden 2 kt
Görüş mesafesi: 6000 m
1200 ft yükseklikte az bulutlu
3000 ft yükseklikte parçalı bulutlu
10000 ft yükseklikte parçalı çok bulutlu

TAF: LTFH 161640Z 1618/1703 VRB02KT 6000 FEW012 SCT030 BKN100

4.000'den fazla havaalanı için hava durumu gözlemleri ve tahminleri (METAR ve TAF raporları).

Kullanılabilir istasyonlar harita üzerinde sarı ve kırmızı noktalarla gösterilir.

İstasyonun adını görmek için fareyi noktanın üzerinde gezdirin.

Sonrasında hava gözlem ve tahminlerini görmek için tıklayın.

Haritayı değiştirmek için: yaklaştırmak için siyah artı işaretli yeşil düğmeye ve uzaklaştırmak için de eksi işaretli düğmeye hızla tıklayın; bitişik haritalar için yeşil okları kullanın.


METAR-TAF: